Time;durP1;ratioP1;P1;durP2;ratioP2;P2;SDS_P1;SDS_P2;PMS_P1;PMS_P2;Temp;Humidity;BMP_temperature;BMP_pressure;BME280_temperature;BME280_humidity;BME280_pressure;Samples;Min_cycle;Max_cycle;Signal;HPM_P1;HPM_P2
2022/08/17 00:01:01;;;;;;;27.60;22.63;;;22.40;99.90;;;;;;4994763;28;20169;-72
2022/08/17 00:03:33;;;;;;;27.35;22.70;;;22.40;99.90;;;;;;4979298;28;20042;-72
2022/08/17 00:06:01;;;;;;;27.15;22.27;;;22.40;99.90;;;;;;4979228;28;20047;-72
2022/08/17 00:08:30;;;;;;;26.98;21.45;;;22.30;99.90;;;;;;4979246;28;20043;-71
2022/08/17 00:10:57;;;;;;;27.77;21.63;;;22.20;99.90;;;;;;4978852;28;20097;-72
2022/08/17 00:13:28;;;;;;;27.25;22.15;;;22.20;99.90;;;;;;4979265;28;20126;-72
2022/08/17 00:16:01;;;;;;;26.30;21.63;;;22.20;99.90;;;;;;4979111;28;20185;-72
2022/08/17 00:18:29;;;;;;;26.10;22.00;;;22.20;99.90;;;;;;4978840;28;20043;-72
2022/08/17 00:20:56;;;;;;;25.35;21.17;;;22.20;99.90;;;;;;4978484;28;20426;-72
2022/08/17 00:23:23;;;;;;;26.35;21.17;;;22.20;99.90;;;;;;4978697;28;20329;-72
2022/08/17 00:25:49;;;;;;;25.48;19.67;;;22.20;99.90;;;;;;4993918;28;20101;-72
2022/08/17 00:28:16;;;;;;;27.65;21.38;;;22.10;99.90;;;;;;4978626;28;20058;-71
2022/08/17 00:30:44;;;;;;;30.05;23.25;;;22.10;99.90;;;;;;4978698;28;20333;-72
2022/08/17 00:33:15;;;;;;;28.55;23.15;;;22.00;99.90;;;;;;4978532;28;20483;-72
2022/08/17 00:35:42;;;;;;;28.75;23.25;;;22.10;99.90;;;;;;4978969;28;20045;-71
2022/08/17 00:38:08;;;;;;;32.83;24.25;;;22.00;99.90;;;;;;4978377;28;20042;-72
2022/08/17 00:40:56;;;;;;;27.77;22.77;;;22.00;99.90;;;;;;4978708;28;20121;-72
2022/08/17 00:43:31;;;;;;;27.45;22.25;;;22.10;99.90;;;;;;4978658;28;20038;-72
2022/08/17 00:45:59;;;;;;;27.60;22.70;;;22.00;99.90;;;;;;4978443;28;20043;-72
2022/08/17 00:48:25;;;;;;;27.20;22.10;;;22.00;99.90;;;;;;4978427;28;20070;-72
2022/08/17 00:51:37;;;;;;;25.15;21.25;;;22.00;99.90;;;;;;4977888;28;20081;-72
2022/08/17 00:54:13;;;;;;;28.75;22.73;;;21.90;99.90;;;;;;4978285;28;20452;-71
2022/08/17 00:57:01;;;;;;;28.77;21.38;;;21.80;99.90;;;;;;4978267;28;20046;-72
2022/08/17 00:59:31;;;;;;;28.50;23.35;;;21.80;99.90;;;;;;4978305;28;20053;-72
2022/08/17 01:01:57;;;;;;;27.20;23.13;;;21.90;99.90;;;;;;4993462;28;20043;-72
2022/08/17 01:04:26;;;;;;;29.98;24.02;;;21.90;99.90;;;;;;4978068;28;20432;-72
2022/08/17 01:06:52;;;;;;;25.88;20.92;;;22.00;99.90;;;;;;4978235;28;20047;-72
2022/08/17 01:09:19;;;;;;;29.38;23.95;;;22.00;99.90;;;;;;4977967;28;20584;-72
2022/08/17 01:11:51;;;;;;;25.73;21.38;;;22.10;99.90;;;;;;4978147;28;20047;-72
2022/08/17 01:14:26;;;;;;;29.30;22.83;;;22.20;99.90;;;;;;4993418;28;20046;-72
2022/08/17 01:16:53;;;;;;;26.43;22.07;;;22.10;99.90;;;;;;4977980;28;20140;-72
2022/08/17 01:19:27;;;;;;;25.45;21.02;;;22.00;99.90;;;;;;4977758;28;20125;-72
2022/08/17 01:22:07;;;;;;;26.83;20.83;;;21.90;99.90;;;;;;4977437;28;20422;-72
2022/08/17 01:24:38;;;;;;;28.40;22.02;;;21.80;99.90;;;;;;4993154;28;20069;-72
2022/08/17 01:27:04;;;;;;;29.33;22.15;;;21.80;99.90;;;;;;4978034;28;20082;-72
2022/08/17 01:29:31;;;;;;;29.25;21.80;;;21.70;99.90;;;;;;4977519;28;20051;-72
2022/08/17 01:32:00;;;;;;;28.48;22.45;;;21.70;99.90;;;;;;4977653;28;20491;-72
2022/08/17 01:34:26;;;;;;;31.38;23.90;;;21.80;99.90;;;;;;4977516;28;20038;-72
2022/08/17 01:36:52;;;;;;;35.15;23.67;;;21.70;99.90;;;;;;4977200;28;20046;-72
2022/08/17 01:39:29;;;;;;;25.92;21.50;;;21.70;99.90;;;;;;4977820;28;20062;-72
2022/08/17 01:42:03;;;;;;;26.88;22.27;;;21.60;99.90;;;;;;4977693;28;20073;-72
2022/08/17 01:44:29;;;;;;;27.83;21.85;;;21.60;99.90;;;;;;4977904;28;20393;-72
2022/08/17 01:46:54;;;;;;;28.95;22.38;;;21.70;99.90;;;;;;4977622;28;20100;-72
2022/08/17 01:49:20;;;;;;;25.60;22.25;;;21.60;99.90;;;;;;4977864;28;20035;-72
2022/08/17 01:51:46;;;;;;;29.55;21.27;;;21.60;99.90;;;;;;4977082;28;20207;-72
2022/08/17 01:54:15;;;;;;;30.25;21.90;;;21.60;99.90;;;;;;4977630;28;20077;-72
2022/08/17 01:56:44;;;;;;;30.20;22.60;;;21.50;99.90;;;;;;4977582;28;20433;-72
2022/08/17 01:59:10;;;;;;;28.85;22.55;;;21.50;99.90;;;;;;4977483;28;20039;-72
2022/08/17 02:01:36;;;;;;;28.85;22.02;;;21.60;99.90;;;;;;4977651;28;20042;-72
2022/08/17 02:04:03;;;;;;;28.52;21.10;;;21.60;99.90;;;;;;4977513;28;20039;-72
2022/08/17 02:06:32;;;;;;;28.63;21.98;;;21.50;99.90;;;;;;4977710;28;20046;-72
2022/08/17 02:08:58;;;;;;;28.70;22.42;;;21.50;99.90;;;;;;4977326;28;20055;-72
2022/08/17 02:11:24;;;;;;;32.65;22.23;;;21.50;99.90;;;;;;4977309;28;20046;-72
2022/08/17 02:13:50;;;;;;;35.95;26.77;;;21.50;99.90;;;;;;4977302;28;20125;-72
2022/08/17 02:16:18;;;;;;;30.08;21.35;;;21.60;99.90;;;;;;4977508;28;20508;-72
2022/08/17 02:18:45;;;;;;;31.15;24.10;;;21.50;99.90;;;;;;4977164;28;20047;-72
2022/08/17 02:21:12;;;;;;;29.67;23.95;;;21.50;99.90;;;;;;4976929;28;20042;-72
2022/08/17 02:23:42;;;;;;;30.08;24.10;;;21.60;99.90;;;;;;4992627;28;20341;-72
2022/08/17 02:26:10;;;;;;;28.45;23.42;;;21.70;99.90;;;;;;4977254;28;20043;-72
2022/08/17 02:28:35;;;;;;;31.63;22.00;;;21.70;99.90;;;;;;4977024;28;20062;-72
2022/08/17 02:31:06;;;;;;;30.25;23.65;;;21.60;99.90;;;;;;4977096;28;20058;-72
2022/08/17 02:33:33;;;;;;;31.80;23.92;;;21.60;99.90;;;;;;4977435;28;20345;-72
2022/08/17 02:35:58;;;;;;;37.30;24.85;;;21.60;99.90;;;;;;4977102;28;20425;-71
2022/08/17 02:38:24;;;;;;;32.55;25.17;;;21.70;99.90;;;;;;4976937;28;20093;-72
2022/08/17 02:40:50;;;;;;;31.05;25.15;;;21.70;99.90;;;;;;4976332;28;20042;-72
2022/08/17 02:43:16;;;;;;;50.55;27.23;;;21.70;99.90;;;;;;4976109;28;20078;-72
2022/08/17 02:45:42;;;;;;;31.75;25.13;;;21.70;99.90;;;;;;4977330;28;20046;-72
2022/08/17 02:48:09;;;;;;;32.00;24.40;;;21.70;99.90;;;;;;4978587;28;20053;-72
2022/08/17 02:50:35;;;;;;;34.85;26.15;;;21.80;99.90;;;;;;4995494;28;20039;-72
2022/08/17 02:53:01;;;;;;;32.13;25.58;;;21.80;99.90;;;;;;4980577;28;20117;-72
2022/08/17 02:55:31;;;;;;;28.58;24.42;;;21.80;99.90;;;;;;4995802;28;20145;-71
2022/08/17 02:57:57;;;;;;;29.77;23.88;;;21.80;99.90;;;;;;4980168;28;20104;-72
2022/08/17 03:00:32;;;;;;;30.63;24.27;;;21.80;99.90;;;;;;4980216;28;20121;-72
2022/08/17 03:02:59;;;;;;;36.80;28.15;;;21.60;99.90;;;;;;4980626;28;20043;-72
2022/08/17 03:05:27;;;;;;;54.83;28.77;;;21.70;99.90;;;;;;4980274;28;20078;-72
2022/08/17 03:07:53;;;;;;;30.83;25.73;;;21.60;99.90;;;;;;4980228;28;20051;-72
2022/08/17 03:10:19;;;;;;;33.90;27.10;;;21.70;99.90;;;;;;4995294;28;20349;-72
2022/08/17 03:12:45;;;;;;;30.77;24.52;;;21.70;99.90;;;;;;4980469;28;20049;-72
2022/08/17 03:15:16;;;;;;;29.80;24.50;;;21.70;99.90;;;;;;4980066;28;20094;-72
2022/08/17 03:17:42;;;;;;;31.08;24.95;;;21.70;99.90;;;;;;4980037;28;20129;-72
2022/08/17 03:20:08;;;;;;;26.10;22.80;;;21.70;99.90;;;;;;4978612;28;20429;-72
2022/08/17 03:22:37;;;;;;;26.77;23.77;;;21.60;99.90;;;;;;4979147;28;20090;-72
2022/08/17 03:25:03;;;;;;;33.45;26.15;;;21.60;99.90;;;;;;4995225;28;20048;-72
2022/08/17 03:27:29;;;;;;;28.23;22.70;;;21.60;99.90;;;;;;4979612;28;20511;-72
2022/08/17 03:29:55;;;;;;;30.60;24.15;;;21.60;99.90;;;;;;4979984;28;20426;-72
2022/08/17 03:32:21;;;;;;;25.75;23.05;;;21.60;99.90;;;;;;4979841;28;20042;-72
2022/08/17 03:34:46;;;;;;;25.25;22.17;;;21.60;99.90;;;;;;4980017;28;20145;-72
2022/08/17 03:37:13;;;;;;;24.30;21.70;;;21.70;99.90;;;;;;4979732;28;20488;-72
2022/08/17 03:39:38;;;;;;;27.80;23.75;;;21.70;99.90;;;;;;4979464;28;20090;-72
2022/08/17 03:42:24;;;;;;;25.05;21.65;;;21.70;99.90;;;;;;4979958;28;20078;-72
2022/08/17 03:44:51;;;;;;;30.13;25.65;;;21.80;99.90;;;;;;4979711;28;20031;-72
2022/08/17 03:58:36;;;;;;;23.75;21.23;;;21.60;99.90;;;;;;4979334;28;20369;-72
2022/08/17 04:01:03;;;;;;;26.27;21.27;;;21.60;99.90;;;;;;4993943;28;20031;-72
2022/08/17 04:03:29;;;;;;;24.60;20.88;;;21.50;99.90;;;;;;4979176;28;20497;-72
2022/08/17 04:05:55;;;;;;;23.48;20.95;;;21.40;99.90;;;;;;4979282;28;20070;-72
2022/08/17 04:08:20;;;;;;;22.90;19.90;;;21.40;99.90;;;;;;4979440;28;20047;-72
2022/08/17 04:10:46;;;;;;;22.83;19.95;;;21.40;99.90;;;;;;4994317;28;20081;-72
2022/08/17 04:13:12;;;;;;;21.65;18.88;;;21.40;99.90;;;;;;4979356;28;20039;-72
2022/08/17 04:15:38;;;;;;;21.83;19.35;;;21.40;99.90;;;;;;4979154;28;20047;-72
2022/08/17 04:18:04;;;;;;;23.88;20.90;;;21.40;99.90;;;;;;4994114;28;20182;-72
2022/08/17 04:20:30;;;;;;;22.65;19.40;;;21.30;99.90;;;;;;4978612;28;20085;-72
2022/08/17 04:23:02;;;;;;;27.25;23.13;;;21.30;99.90;;;;;;4979147;28;20511;-72
2022/08/17 04:25:31;;;;;;;34.72;26.10;;;21.40;99.90;;;;;;4978699;28;20170;-72
2022/08/17 04:27:57;;;;;;;33.90;26.27;;;21.50;99.90;;;;;;4993692;28;20090;-72
2022/08/17 04:30:23;;;;;;;31.15;23.20;;;21.60;99.90;;;;;;4978973;28;20050;-72
2022/08/17 04:32:57;;;;;;;30.70;25.45;;;21.70;99.90;;;;;;4978985;28;20043;-72
2022/08/17 04:35:26;;;;;;;29.33;24.90;;;21.80;99.90;;;;;;4978884;28;20038;-72
2022/08/17 04:37:52;;;;;;;39.03;27.20;;;21.70;99.90;;;;;;4978378;28;20046;-72
2022/08/17 04:43:09;;;;;;;34.80;26.48;;;21.70;99.90;;;;;;4978687;28;20345;-72
2022/08/17 04:45:43;;;;;;;30.60;26.23;;;21.70;99.90;;;;;;4978689;28;20047;-72
2022/08/17 04:48:09;;;;;;;31.33;24.33;;;21.60;99.90;;;;;;4978472;28;20057;-72
2022/08/17 04:50:38;;;;;;;29.25;25.63;;;21.70;99.90;;;;;;4977762;28;20039;-72
2022/08/17 04:53:04;;;;;;;32.03;25.83;;;21.60;99.90;;;;;;4978619;28;20046;-72
2022/08/17 04:55:30;;;;;;;39.97;29.27;;;21.70;99.90;;;;;;4993589;28;20330;-71
2022/08/17 04:57:56;;;;;;;29.35;24.65;;;21.70;99.90;;;;;;4978435;28;20039;-72
2022/08/17 05:00:24;;;;;;;28.50;23.77;;;21.80;99.90;;;;;;4978331;28;20066;-72
2022/08/17 05:02:51;;;;;;;29.52;23.88;;;21.70;99.90;;;;;;4978184;28;20047;-72
2022/08/17 05:05:23;;;;;;;29.65;24.80;;;21.70;99.90;;;;;;4978255;28;20039;-72
2022/08/17 05:07:53;;;;;;;35.67;24.67;;;21.70;99.90;;;;;;4978315;28;20400;-72
2022/08/17 05:10:20;;;;;;;29.10;24.40;;;21.70;99.90;;;;;;4977931;28;20046;-72
2022/08/17 05:12:46;;;;;;;31.40;24.45;;;21.60;99.90;;;;;;4977399;28;20093;-72
2022/08/17 05:15:16;;;;;;;31.70;23.90;;;21.70;99.90;;;;;;4977993;28;20047;-72
2022/08/17 05:17:43;;;;;;;44.53;29.13;;;21.80;99.90;;;;;;4977685;28;20467;-72
2022/08/17 05:20:09;;;;;;;50.70;28.42;;;21.80;99.90;;;;;;4978199;28;20110;-72
2022/08/17 05:22:35;;;;;;;29.52;22.10;;;21.70;99.90;;;;;;4977905;28;20101;-72
2022/08/17 05:25:01;;;;;;;33.78;23.27;;;21.70;99.90;;;;;;4977976;28;20437;-72
2022/08/17 05:27:26;;;;;;;30.27;21.80;;;21.80;99.90;;;;;;4977632;28;20043;-72
2022/08/17 05:29:52;;;;;;;28.90;19.80;;;21.80;99.90;;;;;;4977784;28;20043;-72
2022/08/17 05:32:22;;;;;;;35.78;25.23;;;21.90;99.90;;;;;;4977660;28;20078;-72
2022/08/17 05:34:48;;;;;;;30.50;22.13;;;21.90;99.90;;;;;;4992616;28;20038;-72
2022/08/17 05:37:14;;;;;;;31.40;21.75;;;21.90;99.90;;;;;;4977917;28;20440;-72
2022/08/17 05:39:39;;;;;;;32.85;23.73;;;22.00;99.90;;;;;;4977418;28;20050;-73
2022/08/17 05:42:05;;;;;;;39.53;26.65;;;22.10;99.90;;;;;;4993022;28;20042;-72
2022/08/17 05:44:31;;;;;;;38.40;25.75;;;22.00;99.90;;;;;;4977547;28;20035;-72
2022/08/17 05:47:00;;;;;;;36.88;25.17;;;22.00;99.90;;;;;;4977550;28;20105;-72
2022/08/17 05:49:27;;;;;;;30.40;22.05;;;22.00;99.90;;;;;;4977735;28;20083;-72
2022/08/17 05:52:13;;;;;;;31.17;22.90;;;22.00;99.90;;;;;;4977250;28;20042;-72
2022/08/17 05:54:45;;;;;;;47.08;31.27;;;22.00;99.90;;;;;;4977545;28;20513;-72
2022/08/17 05:57:33;;;;;;;40.40;26.60;;;22.10;99.90;;;;;;4977413;28;20082;-72
2022/08/17 06:00:02;;;;;;;36.80;27.10;;;22.00;99.90;;;;;;4977702;28;20047;-72
2022/08/17 06:02:59;;;;;;;36.38;27.20;;;22.00;99.90;;;;;;4977364;28;20039;-72
2022/08/17 06:05:30;;;;;;;38.65;26.55;;;22.10;99.90;;;;;;4977509;28;20422;-72
2022/08/17 06:08:05;;;;;;;37.45;28.15;;;22.10;99.90;;;;;;4977676;28;20075;-72
2022/08/17 06:10:34;;;;;;;44.00;30.08;;;22.20;99.90;;;;;;4977402;28;20050;-72
2022/08/17 06:13:14;;;;;;;43.45;31.05;;;22.20;99.90;;;;;;4977404;28;20090;-72
2022/08/17 06:16:06;;;;;;;39.35;27.75;;;22.20;99.90;;;;;;4977309;28;20042;-71
2022/08/17 06:18:49;;;;;;;40.10;27.67;;;22.20;99.90;;;;;;4977352;28;20118;-72
2022/08/17 06:21:17;;;;;;;41.17;28.02;;;22.40;99.90;;;;;;4977020;28;20035;-71
2022/08/17 06:23:58;;;;;;;52.70;35.70;;;22.40;99.90;;;;;;4979670;28;20096;-72
2022/08/17 06:26:30;;;;;;;45.85;31.88;;;22.50;99.90;;;;;;4981140;28;20035;-72
2022/08/17 06:29:21;;;;;;;40.75;30.38;;;22.50;99.90;;;;;;4980995;28;20057;-72
2022/08/17 06:31:47;;;;;;;41.08;30.80;;;22.50;99.90;;;;;;4986827;28;20054;-71
2022/08/17 06:34:14;;;;;;;48.67;33.75;;;22.40;99.90;;;;;;4981017;28;20053;-72
2022/08/17 06:36:48;;;;;;;54.83;36.17;;;22.40;99.90;;;;;;4980817;28;20039;-72
2022/08/17 06:39:17;;;;;;;66.55;38.97;;;22.40;99.90;;;;;;4980872;28;20043;-72
2022/08/17 06:42:08;;;;;;;58.70;38.42;;;22.40;99.90;;;;;;4981060;28;20046;-71
2022/08/17 06:44:54;;;;;;;99.20;46.92;;;22.20;99.90;;;;;;4986310;28;20051;-71
2022/08/17 06:47:34;;;;;;;66.55;38.47;;;22.20;99.90;;;;;;4980708;28;20129;-71
2022/08/17 06:50:26;;;;;;;78.22;46.55;;;22.20;99.90;;;;;;4980440;28;20362;-71
2022/08/17 06:53:26;;;;;;;74.18;41.60;;;22.20;99.90;;;;;;4980601;28;20042;-71
2022/08/17 06:56:00;;;;;;;74.55;43.28;;;22.40;99.90;;;;;;4980439;28;20345;-71
2022/08/17 06:58:30;;;;;;;66.43;41.55;;;22.40;99.90;;;;;;4980196;28;20053;-72
2022/08/17 07:00:59;;;;;;;86.10;48.13;;;22.40;99.90;;;;;;4980430;28;20370;-72
2022/08/17 07:03:30;;;;;;;92.50;50.30;;;22.40;99.90;;;;;;4980622;28;20034;-71
2022/08/17 07:06:01;;;;;;;73.57;45.35;;;22.50;99.90;;;;;;4980269;28;20337;-71
2022/08/17 07:08:39;;;;;;;69.05;42.88;;;22.50;99.90;;;;;;4980306;28;20038;-71
2022/08/17 07:11:32;;;;;;;73.88;44.13;;;22.60;99.90;;;;;;4979204;28;20055;-71
2022/08/17 07:14:21;;;;;;;82.45;45.78;;;22.70;99.90;;;;;;4980436;28;20047;-72
2022/08/17 07:16:50;;;;;;;68.70;41.38;;;22.70;99.90;;;;;;4980421;28;20058;-71
2022/08/17 07:19:21;;;;;;;65.15;42.38;;;22.60;99.90;;;;;;4980071;28;20053;-74
2022/08/17 07:22:29;;;;;;;62.47;39.22;;;22.30;99.90;;;;;;4979685;28;20430;-67
2022/08/17 07:24:58;;;;;;;63.72;40.58;;;22.50;99.90;;;;;;4992230;28;20078;-68
2022/08/17 07:27:30;;;;;;;77.65;48.00;;;22.60;99.90;;;;;;4980479;28;20041;-68
2022/08/17 07:30:08;;;;;;;66.40;43.38;;;22.50;99.90;;;;;;4981934;28;20388;-67
2022/08/17 07:32:45;;;;;;;68.25;43.65;;;22.50;99.90;;;;;;4995109;28;20057;-67
2022/08/17 07:35:18;;;;;;;64.03;43.58;;;22.70;99.90;;;;;;4978873;28;20333;-68
2022/08/17 07:38:04;;;;;;;75.28;48.53;;;22.80;99.90;;;;;;4979851;28;20038;-67
2022/08/17 07:40:37;;;;;;;71.75;44.75;;;22.90;99.90;;;;;;4985765;28;20126;-67
2022/08/17 07:43:14;;;;;;;73.15;48.13;;;23.00;99.90;;;;;;4979661;28;20046;-67
2022/08/17 07:48:40;;;;;;;68.28;48.75;;;22.90;99.90;;;;;;4979875;28;20043;-67
2022/08/17 07:51:35;;;;;;;76.18;52.92;;;23.10;99.90;;;;;;4979259;28;20074;-68
2022/08/17 07:54:24;;;;;;;84.13;54.00;;;23.10;99.90;;;;;;4980061;28;20134;-68
2022/08/17 07:56:57;;;;;;;81.25;53.97;;;23.30;99.90;;;;;;4979415;28;20429;-68
2022/08/17 07:59:25;;;;;;;85.63;56.78;;;23.40;99.90;;;;;;4979500;28;20043;-68
2022/08/17 08:01:53;;;;;;;80.57;55.63;;;23.50;99.90;;;;;;4979472;28;20038;-68
2022/08/17 08:04:43;;;;;;;81.07;55.10;;;23.60;99.90;;;;;;4979115;28;20039;-69
2022/08/17 08:07:19;;;;;;;83.95;56.10;;;23.50;99.90;;;;;;4979130;28;20333;-68
2022/08/17 08:10:06;;;;;;;89.93;57.00;;;23.60;99.90;;;;;;4979351;28;20043;-68
2022/08/17 08:13:15;;;;;;;74.40;52.60;;;23.80;99.90;;;;;;4979057;28;20074;-68
2022/08/17 08:15:47;;;;;;;75.93;52.55;;;24.00;99.90;;;;;;4985154;28;20416;-68
2022/08/17 08:18:30;;;;;;;83.15;56.15;;;23.90;99.90;;;;;;4979189;28;20038;-68
2022/08/17 08:21:20;;;;;;;85.07;55.08;;;23.40;99.90;;;;;;4978598;28;20078;-68
2022/08/17 08:23:59;;;;;;;83.63;54.45;;;23.60;99.90;;;;;;4979092;28;20043;-68
2022/08/17 08:26:35;;;;;;;76.90;50.28;;;23.80;99.90;;;;;;4978965;28;20050;-68
2022/08/17 08:29:10;;;;;;;74.88;47.95;;;23.90;99.90;;;;;;4978533;28;20133;-67
2022/08/17 08:32:02;;;;;;;71.90;47.72;;;24.10;99.90;;;;;;4978727;28;20464;-68
2022/08/17 08:34:47;;;;;;;69.78;45.38;;;24.40;99.90;;;;;;4978789;28;20051;-68
2022/08/17 08:37:26;;;;;;;66.30;44.08;;;24.80;99.90;;;;;;4978810;28;20329;-68
2022/08/17 08:40:26;;;;;;;62.80;44.97;;;24.70;99.90;;;;;;4978540;28;20057;-68
2022/08/17 08:43:04;;;;;;;53.22;41.72;;;24.50;99.90;;;;;;4986168;28;20056;-67
2022/08/17 08:45:48;;;;;;;62.70;42.22;;;24.40;99.90;;;;;;4978504;28;20047;-68
2022/08/17 08:48:40;;;;;;;52.08;37.85;;;24.40;99.90;;;;;;4978450;28;20043;-68
2022/08/17 08:51:13;;;;;;;59.35;42.00;;;24.50;99.90;;;;;;4978076;28;20081;-68
2022/08/17 08:53:56;;;;;;;53.88;39.35;;;24.40;99.90;;;;;;4978665;28;20046;-68
2022/08/17 08:56:37;;;;;;;56.20;40.72;;;24.10;99.90;;;;;;4978202;28;20455;-68
2022/08/17 08:59:13;;;;;;;58.42;41.05;;;24.30;99.90;;;;;;4978050;28;20046;-68
2022/08/17 09:02:02;;;;;;;56.55;41.38;;;24.20;99.90;;;;;;4978627;28;20046;-68
2022/08/17 09:04:53;;;;;;;68.93;42.72;;;24.10;99.90;;;;;;4978351;28;20034;-68
2022/08/17 09:07:25;;;;;;;68.10;44.22;;;24.20;99.90;;;;;;4993240;28;20333;-68
2022/08/17 09:10:03;;;;;;;48.33;35.72;;;24.20;99.90;;;;;;4978342;28;20050;-85
2022/08/17 09:12:47;;;;;;;44.55;31.30;;;24.20;99.90;;;;;;4977341;28;20051;-85
2022/08/17 09:15:34;;;;;;;56.20;39.97;;;24.40;99.90;;;;;;4993657;28;20045;-86
2022/08/17 09:18:12;;;;;;;54.65;39.28;;;24.00;99.90;;;;;;4993084;28;20425;-74
2022/08/17 09:20:45;;;;;;;54.42;41.10;;;23.90;99.90;;;;;;4977433;28;20425;-73
2022/08/17 09:23:18;;;;;;;58.33;39.22;;;23.60;99.90;;;;;;4978024;28;20472;-79
2022/08/17 09:25:57;;;;;;;48.65;36.10;;;23.60;99.90;;;;;;4976659;28;20035;-83
2022/08/17 09:28:35;;;;;;;57.10;40.17;;;23.50;99.90;;;;;;4977562;28;20360;-81
2022/08/17 09:31:08;;;;;;;58.17;41.78;;;23.70;99.90;;;;;;4993010;28;20058;-73
2022/08/17 09:33:41;;;;;;;46.30;35.20;;;23.60;99.90;;;;;;4978001;28;20125;-72
2022/08/17 09:36:13;;;;;;;46.60;36.30;;;23.60;99.90;;;;;;4977950;28;20043;-72
2022/08/17 09:39:00;;;;;;;51.83;37.55;;;24.00;99.90;;;;;;4977734;28;20054;-72
2022/08/17 09:41:40;;;;;;;54.10;38.83;;;24.30;99.90;;;;;;4978484;28;20055;-73
2022/08/17 09:44:20;;;;;;;47.55;36.53;;;24.40;99.90;;;;;;4977642;28;20039;-73
2022/08/17 09:46:51;;;;;;;50.25;36.28;;;24.40;99.90;;;;;;4977767;28;20039;-73
2022/08/17 09:49:47;;;;;;;49.30;37.05;;;24.60;99.90;;;;;;4977877;28;20051;-73
2022/08/17 09:52:23;;;;;;;45.15;35.15;;;24.60;99.90;;;;;;4977250;28;20038;-72
2022/08/17 09:54:51;;;;;;;52.10;36.47;;;24.60;99.90;;;;;;4977348;28;20479;-74
2022/08/17 09:57:42;;;;;;;51.33;36.83;;;24.50;99.90;;;;;;4977687;28;20049;-76
2022/08/17 10:00:17;;;;;;;49.38;35.80;;;24.30;99.90;;;;;;4981606;28;20445;-72
2022/08/17 10:03:20;;;;;;;48.67;36.45;;;24.10;99.90;;;;;;4981856;28;20460;-73
2022/08/17 10:05:58;;;;;;;55.90;39.80;;;24.10;99.90;;;;;;4982186;28;20047;-75
2022/08/17 10:08:51;;;;;;;76.18;42.85;;;24.10;99.90;;;;;;4981300;28;20122;-91
2022/08/17 10:14:45;;;;;;;56.33;39.60;;;23.60;99.90;;;;;;4996588;28;20047;-86
2022/08/17 10:18:00;;;;;;;54.65;38.88;;;23.80;99.90;;;;;;4998277;28;20047;-87
2022/08/17 10:20:32;;;;;;;58.00;41.40;;;23.70;99.90;;;;;;4982003;28;20090;-86
2022/08/17 10:26:22;;;;;;;60.70;42.03;;;23.70;99.90;;;;;;4981194;28;20136;-90
2022/08/17 10:29:19;;;;;;;60.22;41.92;;;23.70;99.90;;;;;;4980138;28;20051;-68
2022/08/17 10:31:50;;;;;;;59.70;40.42;;;24.00;99.90;;;;;;4994951;28;20051;-80
2022/08/17 10:34:28;;;;;;;59.53;41.67;;;23.80;99.90;;;;;;4981121;28;20042;-80
2022/08/17 10:37:18;;;;;;;47.30;36.25;;;23.80;99.90;;;;;;4979870;28;20344;-79
2022/08/17 10:39:50;;;;;;;54.45;40.35;;;24.00;99.90;;;;;;4979679;28;20068;-79
2022/08/17 10:42:27;;;;;;;51.15;38.08;;;24.10;99.90;;;;;;4979720;28;20089;-79
2022/08/17 10:45:56;;;;;;;45.60;35.67;;;24.20;99.90;;;;;;4980660;28;20507;-80
2022/08/17 10:48:35;;;;;;;47.72;35.33;;;24.30;99.90;;;;;;4909772;28;20153;-80
2022/08/17 10:51:07;;;;;;;47.42;37.75;;;24.30;99.90;;;;;;4988942;28;20043;-80
2022/08/17 10:53:39;;;;;;;43.63;34.42;;;24.30;99.90;;;;;;4979039;28;20086;-80
2022/08/17 10:56:11;;;;;;;47.78;36.20;;;24.40;99.90;;;;;;4995527;28;20047;-81
2022/08/17 10:58:48;;;;;;;43.67;34.25;;;24.40;99.90;;;;;;4962830;28;20058;-75
2022/08/17 11:01:14;;;;;;;44.03;34.35;;;24.40;99.90;;;;;;4961641;28;20050;-76
2022/08/17 11:03:56;;;;;;;44.33;31.73;;;24.60;99.90;;;;;;4960772;28;20079;-79
2022/08/17 11:06:21;;;;;;;46.60;35.28;;;24.90;99.90;;;;;;4978788;28;20043;-74
2022/08/17 11:08:56;;;;;;;42.08;32.75;;;25.00;99.90;;;;;;4980397;28;20046;-75
2022/08/17 11:11:56;;;;;;;41.00;33.08;;;25.20;99.90;;;;;;4995808;28;20125;-75
2022/08/17 11:14:43;;;;;;;42.38;31.95;;;25.30;99.90;;;;;;4980128;28;20082;-75
2022/08/17 11:17:20;;;;;;;43.00;31.08;;;25.50;99.90;;;;;;4980406;28;20046;-76
2022/08/17 11:20:33;;;;;;;39.05;29.15;;;25.40;99.90;;;;;;4980264;28;20049;-90
2022/08/17 11:23:38;;;;;;;38.25;30.00;;;25.40;99.90;;;;;;4978990;28;20097;-69
2022/08/17 11:26:27;;;;;;;37.05;28.13;;;25.50;99.90;;;;;;5009805;28;20377;-69
2022/08/17 11:29:00;;;;;;;30.77;22.38;;;25.50;99.90;;;;;;4979704;28;20059;-69
2022/08/17 11:31:32;;;;;;;28.20;20.90;;;25.60;99.90;;;;;;4979888;28;20384;-69
2022/08/17 11:34:07;;;;;;;27.15;20.80;;;25.90;99.90;;;;;;4980315;28;20074;-78
2022/08/17 11:37:00;;;;;;;24.67;20.35;;;26.00;99.90;;;;;;4979804;28;20112;-68
2022/08/17 11:40:00;;;;;;;26.52;21.83;;;26.00;99.90;;;;;;4980893;28;20149;-69
2022/08/17 11:42:36;;;;;;;28.33;21.52;;;26.20;99.90;;;;;;4979939;28;20047;-69
2022/08/17 11:45:24;;;;;;;27.23;19.48;;;26.30;99.90;;;;;;4979733;28;20074;-69
2022/08/17 11:53:42;;;;;;;29.23;19.45;;;26.20;99.90;;;;;;4979751;28;20058;-69
2022/08/17 11:56:31;;;;;;;24.38;17.80;;;26.10;99.90;;;;;;4979486;28;20338;-69
2022/08/17 11:58:59;;;;;;;18.90;15.85;;;25.90;99.90;;;;;;4979651;28;20046;-69
2022/08/17 12:01:28;;;;;;;18.33;15.95;;;25.90;99.90;;;;;;4979326;28;20053;-69
2022/08/17 12:04:15;;;;;;;19.52;14.07;;;25.70;99.90;;;;;;4979560;28;20181;-69
2022/08/17 12:07:15;;;;;;;19.48;13.00;;;25.80;99.90;;;;;;4979165;28;20046;-69
2022/08/17 12:09:46;;;;;;;17.02;14.23;;;26.10;99.90;;;;;;4979394;28;20050;-69
2022/08/17 12:12:20;;;;;;;17.73;13.38;;;26.10;99.90;;;;;;4979240;28;20042;-69
2022/08/17 12:14:52;;;;;;;19.52;14.27;;;26.20;99.90;;;;;;4979221;28;20043;-69
2022/08/17 12:17:26;;;;;;;18.55;14.98;;;26.30;99.90;;;;;;4979020;28;20422;-69
2022/08/17 12:19:53;;;;;;;19.00;16.08;;;26.40;99.90;;;;;;4978813;28;20046;-69
2022/08/17 12:22:19;;;;;;;20.80;15.75;;;26.30;99.90;;;;;;4978554;28;20043;-69
2022/08/17 12:25:13;;;;;;;19.75;16.27;;;25.90;99.90;;;;;;4978817;28;20070;-69
2022/08/17 12:27:45;;;;;;;21.88;15.40;;;25.80;99.90;;;;;;4983405;28;20081;-68
2022/08/17 12:30:13;;;;;;;17.95;12.70;;;25.30;99.90;;;;;;4978974;28;20420;-71
2022/08/17 12:32:39;;;;;;;18.08;13.18;;;25.30;99.90;;;;;;4978891;28;20037;-69
2022/08/17 12:35:26;;;;;;;15.98;14.30;;;25.30;99.90;;;;;;4979020;28;20043;-69
2022/08/17 12:37:53;;;;;;;21.63;16.67;;;25.30;99.90;;;;;;4978474;28;20051;-70
2022/08/17 12:40:22;;;;;;;19.75;16.02;;;25.10;99.90;;;;;;4978848;28;20039;-73
2022/08/17 12:42:59;;;;;;;19.65;16.77;;;25.20;99.90;;;;;;4975678;28;20146;-73
2022/08/17 12:45:29;;;;;;;19.55;16.63;;;25.00;99.90;;;;;;4978211;28;20496;-73
2022/08/17 12:48:06;;;;;;;20.23;16.73;;;25.20;99.90;;;;;;4978535;28;20034;-72
2022/08/17 12:50:37;;;;;;;22.10;16.00;;;25.20;99.90;;;;;;4959052;28;20449;-72
2022/08/17 12:53:10;;;;;;;19.15;15.60;;;25.30;99.90;;;;;;4959659;28;20049;-73
2022/08/17 12:55:37;;;;;;;20.65;14.00;;;25.40;99.90;;;;;;4959076;28;20123;-72
2022/08/17 12:58:05;;;;;;;19.42;15.15;;;25.30;99.90;;;;;;4958870;28;20048;-72
2022/08/17 13:00:33;;;;;;;21.80;14.32;;;25.20;99.90;;;;;;4961562;28;20429;-72
2022/08/17 13:03:02;;;;;;;19.35;13.48;;;25.30;99.90;;;;;;4976981;28;20499;-73
2022/08/17 13:05:30;;;;;;;19.65;13.90;;;25.60;99.90;;;;;;4976716;28;20381;-72
2022/08/17 13:07:58;;;;;;;17.98;12.77;;;25.80;99.90;;;;;;4991771;28;20035;-72
2022/08/17 13:10:29;;;;;;;20.88;13.65;;;25.70;99.90;;;;;;4978254;28;20077;-72
2022/08/17 13:12:55;;;;;;;23.13;15.77;;;25.90;99.90;;;;;;4978290;28;20034;-68
2022/08/17 13:15:30;;;;;;;23.38;19.50;;;25.80;99.90;;;;;;4993153;28;20077;-67
2022/08/17 13:18:04;;;;;;;19.73;17.63;;;25.50;99.90;;;;;;4977974;28;20332;-68
2022/08/17 13:20:31;;;;;;;22.83;19.25;;;25.10;99.90;;;;;;4978005;28;20035;-67
2022/08/17 13:23:00;;;;;;;23.90;16.70;;;25.10;99.90;;;;;;4992711;28;20101;-68
2022/08/17 13:25:27;;;;;;;22.15;17.27;;;25.10;99.90;;;;;;4978097;28;20039;-68
2022/08/17 13:27:54;;;;;;;18.48;15.52;;;25.20;99.90;;;;;;4977804;28;20038;-69
2022/08/17 13:30:27;;;;;;;21.10;14.70;;;25.00;99.90;;;;;;4993311;28;20372;-70
2022/08/17 13:32:55;;;;;;;23.90;14.43;;;25.00;99.90;;;;;;4977646;28;20034;-95